Airfield :
LOGIN :

Register | Disclaimer

   EN    FR    IT 

 










Legend :    VFR   Marginal VFR   IFR   Intensive IFR   Very Intensive IFR
Visi :
Ceiling :
>= 8 km
>= 3000ft
5 to 8 km
1000 to 3000 ft
1500m to 5 km
500 to 1000 ft
800 to 1500m
200 to 500 ft
< 800m
< 200 ft
Symbols :   Thunderstorms  Fog  Heavy snow  Heavy precipitations  Wind > 20 kt
SIGMETs :     Misc.  Thunderstorms  Icing  Turbulence  Mountain Waves  Volcanic Ashes






- Airport Elevation : 135 ft
- IATA code : EDI


EGPH - Edinburgh

CURRENT METAR :
  • 010050Z 23004KT CAVOK 06/03 Q1027

EXPIRED METARs :
  • 010020Z 24005KT CAVOK 06/03 Q1027
  • 312350Z 28004KT 240V320 CAVOK 07/03 Q1027
  • 312320Z 29007KT 260V320 CAVOK 07/03 Q1028
  • 312250Z 29005KT 260V330 CAVOK 07/03 Q1028
  • 312220Z 29005KT 250V340 CAVOK 08/03 Q1029

TAF TAF EGPH
Valid from the 01 at 00:00 until the 02 at 00:00 UTC


312321Z 0100/0124 27004KT 9999 SCT040
BECMG 0113/0116 26015G25KT
PROB30
TEMPO 0115/0118 6000 -RADZ BKN012
ATIS : +44 131 339 2823



MET'MAP, your aeronautical weather chart ! - Copyright ORBIFLY December 2007 - Disclaimer

ORBIFLY MET'MAP TEAM :

Programming & Development : Alexandra Zaïnal
Concept & original design : Baudouin d'Aumeries
Assistance for programming : Marc-Olivier Méhu
Technical & hardware support : Manuel Goepfert

Contact : metmap@orbifly.com




SOURCES & CREDITS :

   NOAA